Marlboro, Maryland
Current Conditions -  °F | °C
As of 3:58 PM on Thursday 27 Nov 2014 (Local Time) from KADW Reporting Station
Broken Clouds Broken Clouds  
Wind Chill: 37°   Ceiling: 5500
Heat Index: 44°   Visibility: 10mi
Dew Point: 25°   Wind: 13mph
Humidity: 48%   Direction: 320°NW
Pressure: 30.05"   Gusts: NA
Location:  38.78°N, 76.7676°W
Report Text: KADW 272058Z AUTO 32011KT 10SM BKN055 06/M04 A3005 RMK AO2 CIG 049 RWY19L SLP185 T00641038 53005 $
Loading
Personal Weather Stations






























Interactive Weather Map New forecast layout! Learn more

10-Day Weather Forecast

Advertisements
Track Severe Weather on mobile